createdAt,value
2019-04-10T00:03:32.814Z,28.27
2019-04-10T00:08:32.499Z,27.97
2019-04-10T00:13:37.056Z,31.27
2019-04-10T00:18:43.026Z,32.17
2019-04-10T00:23:47.388Z,32.13
2019-04-10T00:28:51.997Z,27.63
2019-04-10T00:33:56.973Z,30.07
2019-04-10T00:39:02.291Z,28.77
2019-04-10T00:44:08.403Z,28.27
2019-04-10T00:49:13.489Z,28.27
2019-04-10T00:54:18.165Z,28.67
2019-04-10T00:59:22.610Z,26.03
2019-04-10T01:04:27.021Z,26.83
2019-04-10T01:09:31.531Z,28.30
2019-04-10T01:14:35.985Z,27.10
2019-04-10T01:19:41.799Z,28.63
2019-04-10T01:24:46.277Z,31.23
2019-04-10T01:29:51.557Z,28.97
2019-04-10T01:34:56.002Z,30.50
2019-04-10T01:40:00.350Z,28.50
2019-04-10T01:45:06.256Z,29.17
2019-04-10T01:50:12.434Z,29.60
2019-04-10T01:55:24.273Z,30.33
2019-04-10T02:00:25.683Z,29.27
2019-04-10T02:05:30.340Z,33.37
2019-04-10T02:10:34.686Z,31.27
2019-04-10T02:15:39.067Z,31.17
2019-04-10T02:20:43.424Z,29.07
2019-04-10T02:25:47.813Z,28.57
2019-04-10T02:30:52.181Z,30.57
2019-04-10T02:35:57.143Z,29.67
2019-04-10T02:41:01.802Z,29.73
2019-04-10T02:46:08.206Z,30.33
2019-04-10T02:51:13.786Z,30.90
2019-04-10T02:56:20.700Z,30.13
2019-04-10T03:01:25.327Z,30.50
2019-04-10T03:06:30.994Z,28.43
2019-04-10T03:11:36.515Z,31.63
2019-04-10T03:16:41.743Z,30.50
2019-04-10T03:21:47.093Z,27.63
2019-04-10T03:26:52.154Z,29.40
2019-04-10T03:31:59.546Z,27.73
2019-04-10T03:37:04.403Z,30.70
2019-04-10T03:42:08.844Z,34.17
2019-04-10T03:47:13.352Z,30.90
2019-04-10T03:52:18.682Z,32.03
2019-04-10T03:57:23.394Z,32.20
2019-04-10T04:02:27.799Z,31.63
2019-04-10T04:07:32.621Z,30.60
2019-04-10T04:12:37.146Z,30.77
2019-04-10T04:17:41.556Z,29.87
2019-04-10T04:22:47.464Z,31.70
2019-04-10T04:27:51.968Z,31.00
2019-04-10T04:32:56.328Z,32.27
2019-04-10T04:38:00.689Z,32.23
2019-04-10T04:43:05.648Z,28.07
2019-04-10T04:48:10.252Z,34.53
2019-04-10T04:53:14.635Z,31.25
2019-04-10T04:58:20.193Z,31.17
2019-04-10T05:03:25.675Z,32.60
2019-04-10T05:08:30.295Z,29.97
2019-04-10T05:13:34.902Z,29.37
2019-04-10T05:18:39.307Z,25.77
2019-04-10T05:23:43.835Z,27.13
2019-04-10T05:28:48.632Z,22.83
2019-04-10T05:33:53.292Z,24.40
2019-04-10T05:38:57.850Z,25.00
2019-04-10T05:44:02.778Z,23.23
2019-04-10T05:49:07.270Z,24.03
2019-04-10T05:54:12.771Z,23.00
2019-04-10T05:59:17.171Z,23.17
2019-04-10T06:04:21.635Z,26.07
2019-04-10T06:09:26.870Z,22.20
2019-04-10T06:14:32.395Z,23.37
2019-04-10T06:19:36.900Z,23.57
2019-04-10T06:24:42.465Z,18.90
2019-04-10T06:29:48.384Z,25.37
2019-04-10T06:34:52.858Z,16.17
2019-04-10T06:40:08.028Z,15.60
2019-04-10T06:45:05.696Z,15.70
2019-04-10T06:50:10.654Z,20.63
2019-04-10T06:55:15.413Z,17.47
2019-04-10T07:00:21.285Z,16.97
2019-04-10T07:05:37.031Z,23.07
2019-04-10T07:10:43.735Z,18.50
2019-04-10T07:15:40.940Z,14.10
2019-04-10T07:20:46.167Z,11.77
2019-04-10T07:25:51.999Z,11.47
2019-04-10T07:31:00.250Z,12.63
2019-04-10T07:36:06.729Z,8.93
2019-04-10T07:41:14.331Z,10.03
2019-04-10T07:46:15.527Z,9.87
2019-04-10T07:51:21.066Z,10.10
2019-04-10T07:56:26.675Z,15.13
2019-04-10T08:01:31.242Z,15.27
2019-04-10T08:06:37.395Z,9.93
2019-04-10T08:11:42.506Z,10.20
2019-04-10T08:16:47.935Z,10.50
2019-04-10T08:21:52.776Z,13.27
2019-04-10T08:26:57.213Z,11.13
2019-04-10T08:32:01.607Z,12.23
2019-04-10T08:37:06.054Z,10.80
2019-04-10T08:42:10.709Z,11.10
2019-04-10T08:47:15.329Z,9.27
2019-04-10T08:52:19.949Z,10.13
2019-04-10T08:57:24.361Z,13.00
2019-04-10T09:02:28.739Z,11.50
2019-04-10T09:07:33.157Z,14.03
2019-04-10T09:12:37.529Z,10.43
2019-04-10T09:17:41.895Z,14.33
2019-04-10T09:23:10.628Z,10.87
2019-04-10T09:27:52.320Z,9.73
2019-04-10T09:32:57.062Z,8.63
2019-04-10T09:38:02.252Z,9.47
2019-04-10T09:43:07.346Z,8.93
2019-04-10T09:48:12.807Z,10.90
2019-04-10T09:53:17.201Z,10.53
2019-04-10T09:58:21.941Z,10.33
2019-04-10T10:03:26.383Z,11.30
2019-04-10T10:08:31.641Z,9.57
2019-04-10T10:13:37.267Z,8.50
2019-04-10T10:18:41.750Z,9.83
2019-04-10T10:23:46.473Z,11.03
2019-04-10T10:28:51.006Z,12.10
2019-04-10T10:33:56.458Z,10.23
2019-04-10T10:39:06.934Z,8.73
2019-04-10T10:44:08.992Z,10.87
2019-04-10T10:49:13.437Z,19.43
2019-04-10T10:54:18.917Z,8.27
2019-04-10T10:59:23.410Z,9.20
2019-04-10T11:04:27.844Z,9.90
2019-04-10T11:09:32.399Z,10.13
2019-04-10T11:14:39.503Z,10.50
2019-04-10T11:19:45.555Z,11.93
2019-04-10T11:24:51.172Z,11.50
2019-04-10T11:29:55.698Z,9.63
2019-04-10T11:35:00.047Z,9.13
2019-04-10T11:40:06.395Z,11.77
2019-04-10T11:45:11.472Z,11.80
2019-04-10T11:50:18.689Z,10.47
2019-04-10T11:55:27.076Z,10.43
2019-04-10T12:00:45.322Z,11.73
2019-04-10T12:05:46.194Z,13.23
2019-04-10T12:11:05.195Z,14.53
2019-04-10T12:15:56.700Z,15.97
2019-04-10T12:21:01.893Z,13.03
2019-04-10T12:26:07.541Z,12.17
2019-04-10T12:31:12.094Z,14.13
2019-04-10T12:36:18.301Z,13.33
2019-04-10T12:41:23.495Z,14.33
2019-04-10T12:46:28.912Z,13.10
2019-04-10T12:51:34.797Z,13.20
2019-04-10T12:56:40.167Z,10.33
2019-04-10T13:01:44.897Z,9.97
2019-04-10T13:06:52.328Z,14.57
2019-04-10T13:11:56.521Z,10.58
2019-04-10T13:17:01.253Z,10.60
2019-04-10T13:22:05.664Z,9.47
2019-04-10T13:27:10.419Z,9.97
2019-04-10T13:32:16.738Z,12.03
2019-04-10T13:37:21.020Z,11.17
2019-04-10T13:42:25.710Z,9.00
2019-04-10T13:47:30.499Z,8.90
2019-04-10T13:52:36.671Z,11.07
2019-04-10T13:57:41.030Z,11.73
2019-04-10T14:02:45.831Z,8.77
2019-04-10T14:07:51.275Z,9.40
2019-04-10T14:12:57.711Z,8.63
2019-04-10T14:18:02.017Z,11.20
2019-04-10T14:23:23.422Z,8.87
2019-04-10T14:28:29.409Z,7.40
2019-04-10T14:33:33.836Z,10.67
2019-04-10T14:38:39.073Z,10.40
2019-04-10T14:43:45.378Z,8.70
2019-04-10T14:48:50.658Z,9.25
2019-04-10T14:53:55.378Z,9.03
2019-04-10T14:59:01.021Z,8.43
2019-04-10T15:04:06.018Z,9.67
2019-04-10T15:09:24.032Z,8.80
2019-04-10T15:14:25.723Z,9.67
2019-04-10T15:19:32.289Z,9.00
2019-04-10T15:24:36.835Z,8.67
2019-04-10T15:29:41.212Z,11.63
2019-04-10T15:34:46.027Z,10.33
2019-04-10T15:39:50.462Z,9.57
2019-04-10T15:44:54.854Z,9.30
2019-04-10T15:49:59.884Z,11.37
2019-04-10T15:55:05.688Z,12.80
2019-04-10T16:00:10.777Z,11.60
2019-04-10T16:05:15.471Z,9.60
2019-04-10T16:10:33.559Z,10.30
2019-04-10T16:15:42.881Z,8.87
2019-04-10T16:20:49.049Z,10.83
2019-04-10T16:25:54.573Z,9.13
2019-04-10T16:30:59.282Z,9.07
2019-04-10T16:36:05.162Z,9.07
2019-04-10T16:41:10.854Z,9.00
2019-04-10T16:46:15.407Z,7.70
2019-04-10T16:51:20.768Z,7.60
2019-04-10T16:56:25.516Z,9.13
2019-04-10T17:01:30.954Z,9.83
2019-04-10T17:06:36.526Z,13.13
2019-04-10T17:11:42.162Z,8.73
2019-04-10T17:16:46.521Z,8.60
2019-04-10T17:21:52.107Z,10.33
2019-04-10T17:26:57.316Z,8.77
2019-04-10T17:32:02.677Z,9.10
2019-04-10T17:37:07.573Z,11.67
2019-04-10T17:42:14.530Z,8.57
2019-04-10T17:47:18.906Z,8.53
2019-04-10T17:52:23.336Z,9.07
2019-04-10T17:57:36.259Z,11.37
2019-04-10T18:02:34.750Z,8.50
2019-04-10T18:07:40.563Z,8.73
2019-04-10T18:12:46.087Z,19.23
2019-04-10T18:17:51.594Z,8.87
2019-04-10T18:22:56.038Z,10.77
2019-04-10T18:28:01.174Z,9.47
2019-04-10T18:33:07.227Z,10.00
2019-04-10T18:38:11.594Z,13.37
2019-04-10T18:43:16.107Z,11.00
2019-04-10T18:48:20.800Z,9.30
2019-04-10T18:53:25.247Z,11.03
2019-04-10T18:58:31.707Z,11.33
2019-04-10T19:03:47.979Z,8.23
2019-04-10T19:08:46.132Z,10.60
2019-04-10T19:13:50.984Z,9.97
2019-04-10T19:18:56.775Z,10.43
2019-04-10T19:24:01.581Z,8.87
2019-04-10T19:29:07.427Z,9.77
2019-04-10T19:34:12.805Z,10.50
2019-04-10T19:39:18.179Z,11.13
2019-04-10T19:44:23.209Z,11.63
2019-04-10T19:49:28.182Z,11.77
2019-04-10T19:54:33.243Z,15.53
2019-04-10T19:59:37.769Z,12.10
2019-04-10T20:04:43.277Z,9.80
2019-04-10T20:09:48.574Z,14.03
2019-04-10T20:14:53.368Z,9.77
2019-04-10T20:19:58.697Z,10.37
2019-04-10T20:25:04.184Z,9.57
2019-04-10T20:30:09.956Z,11.20
2019-04-10T20:35:16.320Z,9.57
2019-04-10T20:40:22.305Z,8.40
2019-04-10T20:45:26.853Z,8.83
2019-04-10T20:50:32.124Z,9.97
2019-04-10T20:55:37.694Z,10.60
2019-04-10T21:00:43.071Z,12.57
2019-04-10T21:05:48.714Z,12.83
2019-04-10T21:10:53.093Z,9.60
2019-04-10T21:15:58.356Z,9.67
2019-04-10T21:21:02.917Z,12.75
2019-04-10T21:26:08.679Z,11.17
2019-04-10T21:31:23.705Z,11.40
2019-04-10T21:36:28.362Z,12.00
2019-04-10T21:41:32.803Z,11.13
2019-04-10T21:46:37.194Z,10.70
2019-04-10T21:51:42.744Z,12.03
2019-04-10T21:56:47.298Z,12.60
2019-04-10T22:01:52.896Z,11.47
2019-04-10T22:07:01.662Z,12.33
2019-04-10T22:12:25.005Z,13.23
2019-04-10T22:17:20.397Z,10.70
2019-04-10T22:22:24.763Z,11.63
2019-04-10T22:27:29.602Z,11.37
2019-04-10T22:32:35.232Z,13.17
2019-04-10T22:37:40.007Z,11.60
2019-04-10T22:42:47.027Z,13.13
2019-04-10T22:47:50.625Z,11.77
2019-04-10T22:52:56.997Z,13.90
2019-04-10T22:58:02.530Z,12.43
2019-04-10T23:03:07.224Z,9.47
2019-04-10T23:08:11.667Z,12.37
2019-04-10T23:13:16.137Z,10.60
2019-04-10T23:18:21.377Z,13.17
2019-04-10T23:23:25.893Z,12.60
2019-04-10T23:28:30.232Z,10.97
2019-04-10T23:33:34.655Z,9.55
2019-04-10T23:38:39.593Z,10.37
2019-04-10T23:43:44.066Z,10.67
2019-04-10T23:48:48.927Z,10.77
2019-04-10T23:53:53.374Z,13.70
2019-04-10T23:58:58.272Z,11.37
